Time;durP1;ratioP1;P1;durP2;ratioP2;P2;SDS_P1;SDS_P2;PMS_P1;PMS_P2;Temp;Humidity;BMP_temperature;BMP_pressure;BME280_temperature;BME280_humidity;BME280_pressure;Samples;Min_cycle;Max_cycle;Signal;HPM_P1;HPM_P2
2021/12/02 00:00:48;;;;;;;9.98;2.60;;;7.80;82.90;;;;;;5015373;28;20242;-71
2021/12/02 00:03:16;;;;;;;4.53;2.50;;;7.80;82.70;;;;;;5017519;28;20239;-71
2021/12/02 00:05:45;;;;;;;3.80;2.22;;;7.80;82.90;;;;;;5014611;28;20223;-71
2021/12/02 00:08:13;;;;;;;6.95;2.55;;;7.80;82.80;;;;;;5017115;28;20267;-71
2021/12/02 00:10:42;;;;;;;6.40;2.50;;;7.80;82.60;;;;;;5017023;28;20611;-71
2021/12/02 00:13:11;;;;;;;4.45;2.45;;;7.80;82.70;;;;;;5017646;28;20237;-71
2021/12/02 00:15:47;;;;;;;4.97;2.50;;;7.80;82.70;;;;;;5011645;28;20238;-71
2021/12/02 00:21:02;;;;;;;7.05;2.80;;;7.80;82.60;;;;;;5017891;28;20211;-71
2021/12/02 00:21:20;;;;;;;5.88;2.83;;;7.80;82.70;;;;;;5019991;28;20594;-72
2021/12/02 00:23:52;;;;;;;4.47;2.40;;;7.80;82.50;;;;;;5018563;28;20218;-70
2021/12/02 00:26:22;;;;;;;4.72;2.50;;;7.70;82.50;;;;;;5016086;28;20235;-68
2021/12/02 00:28:53;;;;;;;5.47;2.35;;;7.80;82.20;;;;;;5018760;28;20195;-71
2021/12/02 00:31:25;;;;;;;5.45;2.65;;;7.70;82.40;;;;;;5019929;28;20233;-71
2021/12/02 00:33:57;;;;;;;5.30;2.40;;;7.70;82.40;;;;;;5018274;28;20665;-71
2021/12/02 00:36:28;;;;;;;5.25;2.40;;;7.70;82.30;;;;;;5014468;28;20214;-72
2021/12/02 00:38:58;;;;;;;10.77;3.00;;;7.70;82.30;;;;;;5019269;28;20207;-73
2021/12/02 00:41:28;;;;;;;5.00;2.45;;;7.70;82.20;;;;;;5015312;28;20201;-71
2021/12/02 00:43:57;;;;;;;6.30;2.78;;;7.70;82.30;;;;;;5017128;28;20204;-71
2021/12/02 00:46:31;;;;;;;5.70;2.63;;;7.70;81.90;;;;;;5017187;28;20655;-71
2021/12/02 00:49:02;;;;;;;4.15;2.33;;;7.60;82.00;;;;;;5014440;28;20269;-72
2021/12/02 00:51:31;;;;;;;6.80;2.90;;;7.60;82.30;;;;;;5016617;28;20211;-72
2021/12/02 00:54:01;;;;;;;5.43;2.55;;;7.60;82.10;;;;;;5023432;28;20212;-71
2021/12/02 00:56:30;;;;;;;6.20;2.50;;;7.60;82.20;;;;;;5022118;28;20218;-71
2021/12/02 00:58:59;;;;;;;5.25;2.60;;;7.60;82.10;;;;;;5020078;28;20206;-72
2021/12/02 01:01:34;;;;;;;7.72;3.22;;;7.70;82.20;;;;;;5024115;28;20226;-72
2021/12/02 01:04:06;;;;;;;8.63;3.10;;;7.70;82.00;;;;;;5019889;28;20277;-72
2021/12/02 01:06:35;;;;;;;4.60;2.72;;;7.60;81.60;;;;;;5020142;28;20541;-72
2021/12/02 01:09:04;;;;;;;5.63;2.67;;;7.60;81.60;;;;;;5021596;28;20223;-72
2021/12/02 01:11:32;;;;;;;8.75;2.50;;;7.60;82.00;;;;;;5021452;28;20203;-72
2021/12/02 01:14:01;;;;;;;6.90;3.05;;;7.60;81.90;;;;;;5020821;28;20201;-72
2021/12/02 01:16:31;;;;;;;8.07;3.00;;;7.60;82.00;;;;;;5023423;28;20307;-72
2021/12/02 01:19:00;;;;;;;8.82;2.92;;;7.70;81.90;;;;;;5021482;28;20812;-69
2021/12/02 01:21:29;;;;;;;8.20;3.28;;;7.70;81.80;;;;;;5022852;28;20278;-71
2021/12/02 01:24:01;;;;;;;5.63;2.70;;;7.70;81.80;;;;;;5022051;28;20199;-71
2021/12/02 01:26:31;;;;;;;7.10;2.60;;;7.70;81.70;;;;;;5023711;28;20203;-71
2021/12/02 01:29:00;;;;;;;5.18;2.88;;;7.70;81.60;;;;;;5018444;28;20199;-71
2021/12/02 01:31:33;;;;;;;10.77;3.30;;;7.70;81.60;;;;;;5022243;28;20333;-70
2021/12/02 01:34:05;;;;;;;7.15;2.63;;;7.60;81.60;;;;;;5016385;28;20265;-68
2021/12/02 01:36:34;;;;;;;4.95;2.50;;;7.60;81.60;;;;;;5016696;28;20687;-70
2021/12/02 01:39:04;;;;;;;4.45;2.83;;;7.60;81.60;;;;;;5025206;28;20211;-71
2021/12/02 01:41:38;;;;;;;9.57;2.75;;;7.60;81.60;;;;;;5022126;28;20205;-74
2021/12/02 01:44:12;;;;;;;5.65;2.42;;;7.60;81.60;;;;;;5025550;28;20920;-69
2021/12/02 01:46:43;;;;;;;10.52;3.08;;;7.60;81.70;;;;;;5017179;28;20613;-70
2021/12/02 01:49:13;;;;;;;6.13;2.45;;;7.60;81.70;;;;;;5018802;28;20206;-71
2021/12/02 01:51:43;;;;;;;6.32;2.17;;;7.60;81.60;;;;;;5018429;28;20203;-74
2021/12/02 01:54:13;;;;;;;5.28;2.70;;;7.60;81.70;;;;;;5017874;28;20658;-72
2021/12/02 01:56:47;;;;;;;6.70;2.70;;;7.50;81.50;;;;;;5018446;28;20220;-72
2021/12/02 01:59:17;;;;;;;10.57;3.22;;;7.50;81.70;;;;;;5037545;28;20211;-69
2021/12/02 02:01:50;;;;;;;7.63;4.13;;;7.50;81.70;;;;;;5020567;28;20239;-72
2021/12/02 02:04:21;;;;;;;8.10;2.95;;;7.50;81.80;;;;;;5018667;28;20256;-71
2021/12/02 02:06:57;;;;;;;8.45;3.30;;;7.50;81.80;;;;;;5021684;28;20248;-71
2021/12/02 02:09:27;;;;;;;9.18;3.00;;;7.50;81.80;;;;;;5024999;28;20203;-72
2021/12/02 02:11:56;;;;;;;6.88;3.20;;;7.40;82.10;;;;;;5024547;28;20203;-72
2021/12/02 02:14:26;;;;;;;5.55;2.72;;;7.40;82.10;;;;;;5022968;28;20258;-71
2021/12/02 02:16:56;;;;;;;9.75;2.90;;;7.40;82.10;;;;;;5037559;28;20239;-70
2021/12/02 02:19:29;;;;;;;8.30;2.75;;;7.40;82.10;;;;;;5020473;28;20205;-70
2021/12/02 02:21:58;;;;;;;12.00;3.90;;;7.50;82.00;;;;;;5017800;28;20200;-71
2021/12/02 02:24:27;;;;;;;6.70;2.80;;;7.50;82.00;;;;;;5020535;28;20636;-72
2021/12/02 02:26:55;;;;;;;4.78;3.10;;;7.50;82.10;;;;;;5019380;28;20195;-72
2021/12/02 02:29:23;;;;;;;7.22;3.00;;;7.50;82.00;;;;;;5021204;28;20237;-69
2021/12/02 02:31:51;;;;;;;5.88;3.20;;;7.50;81.90;;;;;;5021104;28;20233;-70
2021/12/02 02:34:23;;;;;;;5.72;3.20;;;7.50;82.00;;;;;;5022096;28;20305;-70
2021/12/02 02:36:53;;;;;;;7.70;3.45;;;7.40;82.20;;;;;;5015885;28;20231;-71
2021/12/02 02:39:23;;;;;;;7.88;3.28;;;7.50;82.10;;;;;;5018208;28;20212;-70
2021/12/02 02:41:57;;;;;;;10.65;3.22;;;7.40;82.20;;;;;;5017832;28;20199;-70
2021/12/02 02:44:27;;;;;;;7.93;3.35;;;7.40;82.30;;;;;;5019900;28;20279;-71
2021/12/02 02:46:55;;;;;;;6.55;4.25;;;7.40;82.40;;;;;;5017741;28;20234;-71
2021/12/02 02:49:23;;;;;;;12.13;3.70;;;7.40;82.40;;;;;;5019865;28;20207;-71
2021/12/02 02:51:52;;;;;;;6.30;3.30;;;7.40;82.50;;;;;;5019634;28;20208;-71
2021/12/02 02:54:23;;;;;;;8.13;3.95;;;7.40;82.60;;;;;;5019704;28;20235;-70
2021/12/02 02:56:56;;;;;;;8.15;3.63;;;7.40;82.50;;;;;;5017483;28;20235;-70
2021/12/02 02:59:35;;;;;;;6.35;3.90;;;7.40;82.70;;;;;;5017492;28;20668;-70
2021/12/02 03:02:10;;;;;;;7.22;3.20;;;7.40;82.70;;;;;;5015645;28;20235;-71
2021/12/02 03:04:44;;;;;;;9.52;3.53;;;7.40;82.70;;;;;;5017795;28;20261;-70
2021/12/02 03:07:21;;;;;;;4.75;3.25;;;7.40;82.70;;;;;;5020942;28;20277;-70
2021/12/02 03:09:58;;;;;;;6.47;3.67;;;7.50;82.60;;;;;;5018946;28;20199;-69
2021/12/02 03:12:30;;;;;;;13.05;3.85;;;7.50;82.60;;;;;;5019081;28;20207;-69
2021/12/02 03:17:46;;;;;;;7.72;3.45;;;7.40;82.70;;;;;;4997556;28;20308;-70
2021/12/02 03:20:14;;;;;;;5.78;3.33;;;7.40;82.70;;;;;;4997710;28;20212;-69
2021/12/02 03:22:44;;;;;;;5.78;3.17;;;7.40;82.80;;;;;;4997132;28;20839;-71
2021/12/02 03:25:13;;;;;;;9.40;3.20;;;7.40;82.80;;;;;;4997395;28;20229;-72
2021/12/02 03:27:41;;;;;;;5.30;3.10;;;7.40;82.70;;;;;;4999404;28;20212;-72
2021/12/02 03:30:10;;;;;;;7.13;2.50;;;7.40;82.80;;;;;;4996429;28;20834;-71
2021/12/02 03:32:41;;;;;;;5.88;2.47;;;7.40;82.90;;;;;;5000567;28;20684;-72
2021/12/02 03:35:09;;;;;;;8.93;3.00;;;7.30;82.80;;;;;;4997074;28;20240;-74
2021/12/02 03:37:37;;;;;;;5.72;2.75;;;7.30;82.70;;;;;;5000914;28;20248;-72
2021/12/02 03:40:06;;;;;;;4.90;2.60;;;7.20;82.90;;;;;;5002689;28;20200;-72
2021/12/02 03:42:36;;;;;;;5.30;2.10;;;7.20;82.80;;;;;;5000104;28;20199;-70
2021/12/02 03:45:05;;;;;;;6.57;2.40;;;7.20;83.00;;;;;;4999133;28;20235;-73
2021/12/02 03:47:33;;;;;;;4.47;2.22;;;7.20;83.30;;;;;;5000483;28;20230;-72
2021/12/02 03:50:01;;;;;;;4.13;2.20;;;7.10;83.10;;;;;;4997615;28;20211;-70
2021/12/02 03:52:29;;;;;;;4.90;2.22;;;7.10;83.50;;;;;;4994973;28;20522;-70
2021/12/02 03:54:57;;;;;;;4.30;2.40;;;7.00;83.30;;;;;;5000025;28;20235;-70
2021/12/02 03:57:27;;;;;;;4.68;2.15;;;7.00;83.20;;;;;;4999251;28;20214;-70
2021/12/02 03:59:57;;;;;;;4.30;2.30;;;7.00;83.40;;;;;;4998969;28;20216;-70
2021/12/02 04:02:25;;;;;;;4.40;2.70;;;7.00;83.50;;;;;;5017803;28;20230;-70
2021/12/02 04:04:53;;;;;;;4.20;2.20;;;7.00;83.60;;;;;;5016716;28;20283;-70
2021/12/02 04:07:25;;;;;;;4.90;2.55;;;7.00;83.60;;;;;;5020350;28;20203;-70
2021/12/02 04:09:54;;;;;;;5.55;1.95;;;7.10;83.50;;;;;;5017951;28;20281;-71
2021/12/02 04:12:29;;;;;;;3.30;1.77;;;7.10;83.40;;;;;;5017160;28;20906;-71
2021/12/02 04:15:02;;;;;;;4.50;2.13;;;7.00;83.50;;;;;;5016729;28;20229;-70
2021/12/02 04:17:41;;;;;;;3.40;1.80;;;7.10;83.60;;;;;;5015097;28;20239;-72
2021/12/02 04:20:13;;;;;;;3.13;1.70;;;7.10;83.60;;;;;;5016492;28;20852;-72
2021/12/02 04:22:42;;;;;;;6.13;1.85;;;7.10;83.60;;;;;;5013316;28;20287;-72
2021/12/02 04:25:11;;;;;;;3.30;1.90;;;7.10;83.60;;;;;;5017369;28;20239;-72
2021/12/02 04:27:39;;;;;;;3.55;1.63;;;7.10;83.50;;;;;;5018092;28;20679;-71
2021/12/02 04:30:11;;;;;;;4.78;1.90;;;7.10;83.50;;;;;;5020223;28;20242;-72
2021/12/02 04:32:39;;;;;;;5.95;1.70;;;7.10;83.50;;;;;;5020477;28;20206;-72
2021/12/02 04:35:08;;;;;;;4.55;1.75;;;7.10;83.40;;;;;;5021942;28;20647;-71
2021/12/02 04:37:37;;;;;;;5.25;1.90;;;7.10;83.40;;;;;;5022495;28;20310;-72
2021/12/02 04:40:06;;;;;;;6.70;1.90;;;7.10;83.40;;;;;;5018250;28;20195;-69
2021/12/02 04:42:34;;;;;;;4.60;1.60;;;7.10;83.40;;;;;;5024613;28;20210;-70
2021/12/02 04:45:02;;;;;;;4.80;1.90;;;7.10;83.30;;;;;;5023509;28;21060;-71
2021/12/02 04:47:31;;;;;;;5.60;2.40;;;7.00;83.30;;;;;;5020582;28;20243;-70
2021/12/02 04:50:00;;;;;;;5.25;1.30;;;6.90;83.30;;;;;;5037104;28;20234;-72
2021/12/02 04:52:28;;;;;;;4.28;1.50;;;6.90;83.50;;;;;;5025754;28;20212;-70
2021/12/02 04:54:56;;;;;;;3.78;1.50;;;6.90;83.40;;;;;;5023888;28;20231;-70
2021/12/02 04:57:24;;;;;;;4.97;1.65;;;6.80;83.50;;;;;;5020214;28;20697;-71
2021/12/02 04:59:52;;;;;;;6.32;1.55;;;6.80;83.60;;;;;;5021344;28;20222;-72
2021/12/02 05:02:20;;;;;;;3.53;1.40;;;6.80;83.70;;;;;;5020832;28;20270;-72
2021/12/02 05:04:50;;;;;;;4.57;1.30;;;6.80;83.60;;;;;;5017493;28;20945;-71
2021/12/02 05:07:18;;;;;;;5.43;1.65;;;6.80;83.70;;;;;;5022187;28;20202;-72
2021/12/02 05:09:46;;;;;;;4.63;1.70;;;6.80;83.60;;;;;;5017218;28;20258;-71
2021/12/02 05:12:14;;;;;;;8.05;1.50;;;6.80;83.50;;;;;;5020761;28;20229;-73
2021/12/02 05:14:42;;;;;;;5.35;1.42;;;6.80;83.50;;;;;;5021664;28;20680;-72
2021/12/02 05:17:09;;;;;;;4.43;1.67;;;6.80;83.50;;;;;;5024552;28;20240;-72
2021/12/02 05:19:37;;;;;;;6.68;1.60;;;6.80;83.60;;;;;;5025868;28;20207;-71
2021/12/02 05:22:08;;;;;;;7.07;1.65;;;6.80;83.50;;;;;;5029622;28;20253;-70
2021/12/02 05:24:36;;;;;;;7.30;1.58;;;6.70;83.50;;;;;;5025812;28;20305;-71
2021/12/02 05:27:05;;;;;;;5.28;1.70;;;6.70;83.50;;;;;;5022753;28;20211;-71
2021/12/02 05:29:33;;;;;;;6.35;1.65;;;6.70;83.40;;;;;;5025187;28;20625;-71
2021/12/02 05:32:01;;;;;;;4.00;1.50;;;6.60;83.40;;;;;;5030976;28;20649;-71
2021/12/02 05:34:29;;;;;;;6.53;1.50;;;6.60;83.50;;;;;;5024244;28;20217;-71
2021/12/02 05:36:57;;;;;;;9.40;1.73;;;6.60;83.50;;;;;;5020900;28;20679;-69
2021/12/02 05:39:27;;;;;;;5.43;2.08;;;6.60;83.40;;;;;;5021500;28;20580;-71
2021/12/02 05:41:55;;;;;;;5.95;1.60;;;6.60;83.40;;;;;;5021801;28;20208;-71
2021/12/02 05:44:23;;;;;;;5.68;1.77;;;6.60;83.20;;;;;;5022336;28;20221;-71
2021/12/02 05:46:52;;;;;;;5.15;2.03;;;6.50;83.20;;;;;;5018080;28;20233;-71
2021/12/02 05:49:20;;;;;;;3.67;1.60;;;6.50;83.40;;;;;;5022189;28;20205;-70
2021/12/02 05:51:48;;;;;;;3.88;1.27;;;6.50;83.60;;;;;;5022776;28;20193;-70
2021/12/02 05:54:16;;;;;;;2.85;1.15;;;6.50;83.50;;;;;;5021901;28;20696;-69
2021/12/02 05:56:45;;;;;;;4.88;1.65;;;6.50;83.50;;;;;;5023151;28;20201;-70
2021/12/02 05:59:13;;;;;;;9.00;1.50;;;6.50;83.40;;;;;;5024989;28;20233;-70
2021/12/02 06:01:42;;;;;;;4.13;1.75;;;6.50;83.20;;;;;;5023573;28;20543;-70
2021/12/02 06:04:11;;;;;;;4.18;1.50;;;6.50;83.10;;;;;;5025766;28;20317;-71
2021/12/02 06:06:40;;;;;;;4.95;1.80;;;6.40;83.20;;;;;;5022667;28;20206;-71
2021/12/02 06:09:09;;;;;;;3.22;0.95;;;6.40;83.40;;;;;;5020750;28;20225;-68
2021/12/02 06:11:41;;;;;;;4.20;1.42;;;6.40;83.10;;;;;;5021010;28;20672;-71
2021/12/02 06:14:13;;;;;;;5.80;1.40;;;6.40;83.20;;;;;;5019568;28;20206;-71
2021/12/02 06:16:42;;;;;;;4.35;1.48;;;6.40;83.10;;;;;;5024471;28;20606;-70
2021/12/02 06:19:10;;;;;;;3.65;1.60;;;6.40;83.10;;;;;;5024180;28;20893;-72
2021/12/02 06:21:39;;;;;;;4.80;1.90;;;6.40;83.20;;;;;;5023588;28;20263;-70
2021/12/02 06:24:08;;;;;;;3.55;1.50;;;6.30;83.20;;;;;;5021104;28;20207;-71
2021/12/02 06:26:37;;;;;;;4.55;1.58;;;6.30;83.20;;;;;;5022225;28;20198;-72
2021/12/02 06:29:05;;;;;;;3.95;1.23;;;6.40;83.30;;;;;;5020528;28;20198;-71
2021/12/02 06:31:34;;;;;;;5.43;1.35;;;6.40;83.20;;;;;;5020038;28;20227;-71
2021/12/02 06:34:02;;;;;;;5.10;1.60;;;6.40;83.10;;;;;;5017077;28;20210;-70
2021/12/02 06:36:31;;;;;;;5.68;1.65;;;6.40;83.10;;;;;;5024020;28;20209;-70
2021/12/02 06:38:59;;;;;;;3.53;1.25;;;6.40;83.00;;;;;;5017361;28;20878;-71
2021/12/02 06:41:28;;;;;;;5.13;1.35;;;6.30;83.10;;;;;;5020459;28;20209;-72
2021/12/02 06:43:56;;;;;;;3.55;1.08;;;6.40;83.20;;;;;;5017748;28;20223;-71
2021/12/02 06:46:24;;;;;;;3.95;1.17;;;6.40;83.10;;;;;;5021102;28;20255;-69
2021/12/02 06:48:53;;;;;;;3.45;1.15;;;6.40;83.10;;;;;;5019568;28;20260;-69
2021/12/02 06:51:22;;;;;;;2.80;1.20;;;6.40;83.10;;;;;;5023313;28;20587;-69
2021/12/02 06:53:51;;;;;;;3.35;1.60;;;6.30;82.80;;;;;;5015640;28;20200;-70
2021/12/02 06:56:37;;;;;;;4.60;1.30;;;6.30;82.80;;;;;;5012690;28;20209;-71
2021/12/02 06:59:05;;;;;;;3.88;1.20;;;6.20;82.70;;;;;;5014306;28;20289;-71
2021/12/02 07:01:35;;;;;;;3.85;1.45;;;6.20;82.50;;;;;;5018296;28;20238;-71
2021/12/02 07:04:04;;;;;;;3.17;1.05;;;6.10;82.40;;;;;;5024417;28;20214;-71
2021/12/02 07:06:32;;;;;;;3.40;0.95;;;6.00;82.40;;;;;;5020485;28;20202;-71
2021/12/02 07:09:00;;;;;;;2.80;1.10;;;5.90;82.30;;;;;;5018092;28;20201;-69
2021/12/02 07:11:28;;;;;;;3.20;1.25;;;5.90;82.20;;;;;;5024286;28;20230;-78
2021/12/02 07:14:03;;;;;;;2.70;0.90;;;5.80;82.30;;;;;;5015697;28;20201;-71
2021/12/02 07:16:32;;;;;;;4.10;1.25;;;5.70;82.30;;;;;;5024529;28;20234;-73
2021/12/02 07:19:03;;;;;;;2.50;0.90;;;5.70;82.40;;;;;;5020824;28;20303;-72
2021/12/02 07:21:34;;;;;;;2.55;1.15;;;5.70;82.40;;;;;;5018921;28;20208;-69
2021/12/02 07:24:02;;;;;;;2.92;1.00;;;5.60;82.40;;;;;;5021420;28;20259;-69
2021/12/02 07:26:33;;;;;;;3.25;1.10;;;5.60;82.40;;;;;;5021485;28;20236;-73
2021/12/02 07:29:02;;;;;;;3.10;1.15;;;5.60;82.30;;;;;;5024240;28;20255;-71
2021/12/02 07:31:31;;;;;;;2.75;1.25;;;5.60;82.40;;;;;;5023356;28;20232;-69
2021/12/02 07:34:00;;;;;;;3.20;1.40;;;5.60;82.30;;;;;;5020239;28;20612;-71
2021/12/02 07:36:30;;;;;;;3.28;1.27;;;5.60;82.30;;;;;;5018507;28;20229;-72
2021/12/02 07:39:01;;;;;;;3.17;1.30;;;5.60;82.30;;;;;;5018619;28;20624;-71
2021/12/02 07:41:29;;;;;;;2.75;1.17;;;5.50;82.00;;;;;;5019873;28;20614;-70
2021/12/02 07:43:57;;;;;;;2.97;1.17;;;5.50;82.00;;;;;;5014579;28;20204;-72
2021/12/02 07:46:31;;;;;;;3.20;1.40;;;5.40;82.10;;;;;;5014095;28;20302;-70
2021/12/02 07:48:59;;;;;;;4.25;1.30;;;5.40;82.10;;;;;;5019646;28;20570;-72
2021/12/02 07:51:31;;;;;;;4.05;1.23;;;5.40;82.10;;;;;;5020941;28;20205;-71
2021/12/02 07:54:01;;;;;;;3.80;1.20;;;5.30;82.20;;;;;;5019305;28;20194;-71
2021/12/02 07:56:33;;;;;;;4.22;1.67;;;5.30;82.30;;;;;;5021693;28;20610;-69
2021/12/02 07:59:05;;;;;;;3.42;1.70;;;5.40;82.40;;;;;;5023774;28;20236;-71
2021/12/02 08:01:35;;;;;;;3.25;1.42;;;5.40;82.30;;;;;;5018436;28;20282;-71
2021/12/02 08:04:03;;;;;;;5.45;1.80;;;5.40;82.10;;;;;;5028733;28;20274;-69
2021/12/02 08:06:31;;;;;;;5.07;1.50;;;5.40;82.20;;;;;;5020324;28;20197;-71
2021/12/02 08:09:01;;;;;;;4.43;1.83;;;5.40;82.30;;;;;;5018950;28;20209;-71
2021/12/02 08:11:28;;;;;;;5.32;1.30;;;5.30;82.20;;;;;;5021048;28;20756;-69
2021/12/02 08:13:57;;;;;;;3.10;1.10;;;5.30;82.20;;;;;;5020336;28;20366;-70
2021/12/02 08:16:26;;;;;;;3.03;1.30;;;5.30;82.20;;;;;;5019811;28;20236;-70
2021/12/02 08:18:54;;;;;;;3.30;1.48;;;5.30;82.20;;;;;;5022134;28;20212;-71
2021/12/02 08:21:21;;;;;;;5.05;1.50;;;5.30;82.30;;;;;;5016251;28;20209;-70
2021/12/02 08:23:49;;;;;;;3.67;1.48;;;5.30;82.30;;;;;;5014648;28;20198;-70
2021/12/02 08:26:19;;;;;;;4.60;1.70;;;5.30;82.30;;;;;;5019562;28;20854;-71
2021/12/02 08:28:46;;;;;;;2.90;1.50;;;5.30;82.30;;;;;;5021193;28;20281;-71
2021/12/02 08:31:15;;;;;;;3.20;1.60;;;5.30;82.40;;;;;;5021785;28;20271;-70
2021/12/02 08:33:47;;;;;;;3.65;1.73;;;5.40;82.40;;;;;;5018462;28;20205;-71
2021/12/02 08:36:15;;;;;;;3.00;1.58;;;5.40;82.50;;;;;;5021483;28;20229;-71
2021/12/02 08:38:45;;;;;;;3.30;1.63;;;5.40;82.50;;;;;;5019452;28;20621;-70
2021/12/02 08:41:17;;;;;;;4.20;1.23;;;5.50;82.60;;;;;;5017949;28;20259;-71
2021/12/02 08:43:47;;;;;;;3.75;1.65;;;5.50;82.60;;;;;;5022678;28;20201;-71
2021/12/02 08:46:15;;;;;;;4.00;1.83;;;5.50;82.50;;;;;;5025598;28;20446;-71
2021/12/02 08:48:45;;;;;;;3.38;1.70;;;5.50;82.50;;;;;;5020184;28;20202;-71
2021/12/02 08:51:14;;;;;;;6.25;2.15;;;5.60;82.50;;;;;;5016936;28;20205;-71
2021/12/02 08:53:42;;;;;;;5.25;2.17;;;5.60;82.50;;;;;;5017318;28;20682;-71
2021/12/02 08:56:10;;;;;;;3.83;2.15;;;5.60;82.50;;;;;;5020422;28;20315;-71
2021/12/02 08:58:38;;;;;;;4.43;2.17;;;5.60;82.60;;;;;;5019905;28;20197;-70
2021/12/02 09:01:07;;;;;;;4.05;2.30;;;5.60;82.60;;;;;;5018853;28;20245;-69
2021/12/02 09:03:38;;;;;;;5.85;2.70;;;5.60;82.60;;;;;;5017556;28;20197;-71
2021/12/02 09:06:10;;;;;;;8.10;2.00;;;5.60;82.50;;;;;;5017331;28;20322;-71
2021/12/02 09:08:40;;;;;;;4.32;2.10;;;5.60;82.40;;;;;;5019340;28;20205;-70
2021/12/02 09:11:10;;;;;;;3.95;2.33;;;5.60;82.50;;;;;;5019708;28;20727;-68
2021/12/02 09:13:38;;;;;;;5.38;1.83;;;5.60;82.50;;;;;;5018766;28;20213;-71
2021/12/02 09:16:07;;;;;;;4.35;1.90;;;5.60;82.60;;;;;;5017681;28;20245;-71
2021/12/02 09:18:35;;;;;;;5.40;1.52;;;5.60;82.70;;;;;;5022012;28;20240;-69
2021/12/02 09:21:03;;;;;;;3.53;1.52;;;5.60;82.70;;;;;;5020481;28;20236;-68
2021/12/02 09:23:31;;;;;;;4.22;1.73;;;5.60;82.70;;;;;;5018200;28;20201;-70
2021/12/02 09:26:00;;;;;;;5.25;1.60;;;5.60;82.70;;;;;;5023703;28;20920;-70
2021/12/02 09:28:28;;;;;;;4.70;1.70;;;5.60;82.60;;;;;;5025173;28;20197;-71
2021/12/02 09:30:56;;;;;;;4.85;1.50;;;5.60;82.70;;;;;;5020166;28;20272;-70
2021/12/02 09:33:25;;;;;;;2.97;1.55;;;5.60;82.70;;;;;;5019265;28;20209;-70
2021/12/02 09:35:53;;;;;;;3.40;1.30;;;5.60;82.80;;;;;;5018419;28;20224;-70
2021/12/02 09:38:21;;;;;;;2.90;1.40;;;5.60;82.80;;;;;;5018995;28;20193;-70
2021/12/02 09:40:50;;;;;;;8.07;1.33;;;5.60;82.90;;;;;;5021891;28;20227;-70
2021/12/02 09:43:18;;;;;;;3.97;1.67;;;5.60;83.00;;;;;;5022130;28;20213;-71
2021/12/02 09:45:46;;;;;;;6.75;1.92;;;5.70;82.90;;;;;;5020197;28;20240;-69
2021/12/02 09:48:14;;;;;;;3.15;1.30;;;5.70;83.10;;;;;;5020722;28;20204;-70
2021/12/02 09:53:53;;;;;;;4.15;1.48;;;5.70;83.10;;;;;;5018093;28;20227;-70
2021/12/02 09:56:24;;;;;;;4.35;1.95;;;5.70;83.10;;;;;;5020752;28;20229;-70
2021/12/02 09:58:54;;;;;;;9.32;2.20;;;5.80;83.10;;;;;;5019380;28;20206;-70
2021/12/02 10:01:30;;;;;;;5.72;1.70;;;5.80;83.20;;;;;;5016784;28;20228;-70
2021/12/02 10:04:01;;;;;;;6.13;1.60;;;5.90;83.20;;;;;;5017118;28;20718;-70
2021/12/02 10:06:32;;;;;;;4.15;1.83;;;5.90;83.00;;;;;;5015401;28;20684;-70
2021/12/02 10:09:10;;;;;;;5.22;1.40;;;5.90;83.00;;;;;;5017122;28;20206;-71
2021/12/02 10:11:45;;;;;;;6.53;1.80;;;6.00;83.00;;;;;;5032558;28;20208;-72
2021/12/02 10:14:21;;;;;;;3.70;1.60;;;6.00;83.10;;;;;;5021165;28;20267;-70
2021/12/02 10:16:51;;;;;;;4.57;1.73;;;6.00;83.10;;;;;;5018903;28;20271;-71
2021/12/02 10:19:21;;;;;;;3.40;1.70;;;6.00;83.00;;;;;;5023039;28;20201;-70
2021/12/02 10:21:55;;;;;;;4.75;1.70;;;6.00;82.90;;;;;;5014193;28;20209;-69
2021/12/02 10:24:25;;;;;;;8.32;2.08;;;6.00;82.90;;;;;;5019244;28;20205;-71
2021/12/02 10:26:56;;;;;;;4.07;1.80;;;6.00;82.90;;;;;;5021097;28;20202;-71
2021/12/02 10:29:47;;;;;;;4.05;1.92;;;6.00;82.90;;;;;;5017650;28;20201;-70
2021/12/02 10:32:19;;;;;;;6.75;2.20;;;6.00;83.00;;;;;;5019028;28;20283;-70
2021/12/02 10:34:51;;;;;;;3.80;1.60;;;6.00;83.00;;;;;;5018056;28;20647;-72
2021/12/02 10:37:22;;;;;;;5.10;2.10;;;6.00;83.10;;;;;;5018733;28;20201;-71
2021/12/02 10:39:59;;;;;;;3.25;1.95;;;6.10;83.20;;;;;;5016818;28;20741;-70
2021/12/02 10:42:28;;;;;;;5.38;2.20;;;6.10;83.20;;;;;;5019178;28;20240;-69
2021/12/02 10:45:00;;;;;;;6.03;2.50;;;6.10;83.10;;;;;;5017737;28;20348;-71
2021/12/02 10:47:29;;;;;;;4.97;2.35;;;6.10;83.10;;;;;;5016236;28;20914;-71
2021/12/02 10:50:00;;;;;;;5.10;2.30;;;6.10;83.20;;;;;;5019948;28;21145;-71
2021/12/02 10:52:32;;;;;;;4.65;2.25;;;6.10;83.20;;;;;;5015952;28;21680;-69
2021/12/02 10:55:03;;;;;;;6.15;2.70;;;6.20;83.20;;;;;;5017512;28;20256;-73
2021/12/02 10:57:35;;;;;;;5.75;2.42;;;6.20;83.20;;;;;;5018335;28;20201;-72
2021/12/02 11:00:06;;;;;;;6.30;2.55;;;6.20;83.20;;;;;;5017605;28;20294;-70
2021/12/02 11:02:38;;;;;;;4.57;1.90;;;6.20;83.30;;;;;;5019319;28;20220;-69
2021/12/02 11:05:08;;;;;;;5.68;2.28;;;6.20;83.30;;;;;;5017980;28;20241;-68
2021/12/02 11:07:40;;;;;;;4.28;2.72;;;6.20;83.30;;;;;;5018965;28;20197;-72
2021/12/02 11:10:11;;;;;;;3.65;2.25;;;6.30;83.40;;;;;;5022859;28;20237;-74
2021/12/02 11:12:40;;;;;;;4.32;2.42;;;6.30;83.30;;;;;;5016406;28;20197;-70
2021/12/02 11:15:11;;;;;;;4.55;2.60;;;6.30;83.40;;;;;;5018410;28;20237;-76
2021/12/02 11:17:43;;;;;;;4.93;2.38;;;6.30;83.30;;;;;;5016467;28;20205;-72
2021/12/02 11:20:15;;;;;;;4.93;2.70;;;6.40;83.40;;;;;;5016687;28;20223;-74
2021/12/02 11:22:45;;;;;;;4.68;2.60;;;6.40;83.40;;;;;;5019763;28;20202;-69
2021/12/02 11:25:14;;;;;;;5.72;2.70;;;6.40;83.40;;;;;;5029216;28;20233;-69
2021/12/02 11:27:44;;;;;;;4.60;2.45;;;6.40;83.40;;;;;;5021217;28;20202;-71
2021/12/02 11:30:16;;;;;;;3.90;2.45;;;6.40;83.40;;;;;;5022009;28;20206;-71
2021/12/02 11:32:53;;;;;;;9.35;3.28;;;6.50;83.40;;;;;;5017380;28;20290;-71
2021/12/02 11:35:25;;;;;;;6.03;2.70;;;6.50;83.50;;;;;;5014396;28;20229;-68
2021/12/02 11:37:58;;;;;;;7.80;3.00;;;6.50;83.40;;;;;;5021554;28;20203;-70
2021/12/02 11:40:28;;;;;;;4.50;2.45;;;6.50;83.20;;;;;;5020770;28;20209;-71
2021/12/02 11:42:57;;;;;;;4.88;2.85;;;6.50;83.20;;;;;;5033879;28;20211;-69
2021/12/02 11:45:26;;;;;;;7.72;2.90;;;6.50;83.20;;;;;;5019051;28;20259;-70
2021/12/02 11:47:55;;;;;;;5.50;2.63;;;6.50;83.20;;;;;;5016389;28;20225;-69
2021/12/02 11:50:26;;;;;;;7.68;2.90;;;6.50;83.20;;;;;;5019792;28;20760;-70
2021/12/02 11:52:56;;;;;;;6.00;3.13;;;6.50;83.10;;;;;;5019664;28;20201;-70
2021/12/02 11:55:27;;;;;;;4.65;2.78;;;6.50;83.20;;;;;;5017834;28;20233;-70
2021/12/02 11:57:56;;;;;;;6.47;2.75;;;6.50;83.20;;;;;;5021065;28;20205;-69
2021/12/02 12:00:27;;;;;;;4.55;2.90;;;6.50;83.40;;;;;;5032338;28;20275;-70
2021/12/02 12:02:59;;;;;;;6.57;2.50;;;6.50;83.40;;;;;;5021427;28;20217;-69
2021/12/02 12:05:30;;;;;;;4.15;2.45;;;6.60;83.50;;;;;;5019936;28;20273;-70
2021/12/02 12:07:59;;;;;;;5.75;2.60;;;6.60;83.40;;;;;;5018160;28;20194;-71
2021/12/02 12:10:34;;;;;;;4.63;2.72;;;6.60;83.30;;;;;;5021019;28;20237;-69
2021/12/02 12:13:17;;;;;;;4.85;2.90;;;6.70;83.30;;;;;;5017688;28;20199;-71
2021/12/02 12:15:47;;;;;;;11.20;2.88;;;6.70;83.20;;;;;;5014562;28;21138;-69
2021/12/02 12:18:40;;;;;;;5.68;2.83;;;6.70;83.10;;;;;;5016017;28;20215;-69
2021/12/02 12:21:10;;;;;;;4.35;2.40;;;6.70;83.10;;;;;;5015929;28;20228;-72
2021/12/02 12:23:48;;;;;;;6.43;2.70;;;6.60;83.00;;;;;;5016617;28;20202;-70
2021/12/02 12:26:29;;;;;;;5.70;3.00;;;6.60;83.00;;;;;;5019120;28;20615;-71
2021/12/02 12:29:31;;;;;;;6.15;2.60;;;6.60;83.00;;;;;;5014115;28;20206;-70
2021/12/02 12:35:41;;;;;;;5.00;2.58;;;6.50;82.80;;;;;;5010323;28;20233;-68
2021/12/02 12:38:22;;;;;;;5.13;2.47;;;6.40;82.80;;;;;;5016854;28;20211;-70
2021/12/02 12:40:54;;;;;;;7.45;2.35;;;6.40;83.00;;;;;;5019856;28;20236;-70
2021/12/02 12:43:38;;;;;;;4.72;2.15;;;6.40;82.80;;;;;;5017330;28;20211;-69
2021/12/02 12:46:12;;;;;;;4.50;1.90;;;6.30;82.30;;;;;;5018494;28;20229;-69
2021/12/02 12:48:41;;;;;;;3.92;1.80;;;6.20;82.30;;;;;;5023373;28;20201;-72
2021/12/02 12:51:16;;;;;;;3.38;1.75;;;6.10;82.60;;;;;;5021347;28;20213;-72
2021/12/02 12:53:48;;;;;;;3.42;1.70;;;6.00;82.50;;;;;;5021057;28;20209;-69
2021/12/02 12:56:20;;;;;;;3.53;1.50;;;5.90;82.40;;;;;;5023171;28;20221;-71
2021/12/02 12:59:04;;;;;;;3.83;1.75;;;5.90;82.40;;;;;;5021320;28;20197;-73
2021/12/02 13:01:33;;;;;;;4.18;2.15;;;5.80;82.70;;;;;;5025866;28;20235;-72
2021/12/02 13:04:11;;;;;;;3.72;2.17;;;5.80;82.90;;;;;;5019797;28;20206;-72
2021/12/02 13:06:51;;;;;;;6.50;2.72;;;5.90;83.10;;;;;;5019749;28;20212;-72
2021/12/02 13:09:42;;;;;;;6.18;2.70;;;5.90;83.00;;;;;;5019377;28;20262;-71
2021/12/02 13:12:17;;;;;;;7.63;3.65;;;6.00;82.90;;;;;;5016921;28;20740;-71
2021/12/02 13:14:48;;;;;;;6.85;3.72;;;6.00;83.00;;;;;;5014599;28;20711;-71
2021/12/02 13:17:39;;;;;;;5.78;3.10;;;6.10;83.10;;;;;;5017098;28;20224;-72
2021/12/02 13:20:32;;;;;;;4.80;2.97;;;6.10;83.00;;;;;;5020511;28;20341;-71
2021/12/02 13:23:27;;;;;;;6.03;2.85;;;6.10;83.00;;;;;;5014602;28;20230;-71
2021/12/02 13:25:58;;;;;;;6.38;3.30;;;6.10;83.00;;;;;;5019608;28;20226;-71